sensor_id;sensor_type;location;lat;lon;timestamp;temperature;humidity
44431;DHT22;30135;47.866;-4.222;2023-05-31T00:01:49;16.40;72.00
44431;DHT22;30135;47.866;-4.222;2023-05-31T00:04:15;16.40;72.00
44431;DHT22;30135;47.866;-4.222;2023-05-31T00:06:41;16.40;72.10
44431;DHT22;30135;47.866;-4.222;2023-05-31T00:09:07;16.40;72.10
44431;DHT22;30135;47.866;-4.222;2023-05-31T00:11:33;16.40;72.20
44431;DHT22;30135;47.866;-4.222;2023-05-31T00:13:59;16.30;72.20
44431;DHT22;30135;47.866;-4.222;2023-05-31T00:16:25;16.30;72.40
44431;DHT22;30135;47.866;-4.222;2023-05-31T00:18:51;16.30;72.60
44431;DHT22;30135;47.866;-4.222;2023-05-31T00:21:17;16.30;72.60
44431;DHT22;30135;47.866;-4.222;2023-05-31T00:23:42;16.30;72.70
44431;DHT22;30135;47.866;-4.222;2023-05-31T00:26:08;16.30;72.80
44431;DHT22;30135;47.866;-4.222;2023-05-31T00:28:34;16.30;72.80
44431;DHT22;30135;47.866;-4.222;2023-05-31T00:31:00;16.30;72.90
44431;DHT22;30135;47.866;-4.222;2023-05-31T00:33:26;16.30;73.00
44431;DHT22;30135;47.866;-4.222;2023-05-31T00:35:52;16.20;73.00
44431;DHT22;30135;47.866;-4.222;2023-05-31T00:38:18;16.20;73.10
44431;DHT22;30135;47.866;-4.222;2023-05-31T00:40:44;16.20;73.30
44431;DHT22;30135;47.866;-4.222;2023-05-31T00:43:12;16.20;73.40
44431;DHT22;30135;47.866;-4.222;2023-05-31T00:45:38;16.20;73.40
44431;DHT22;30135;47.866;-4.222;2023-05-31T00:48:05;16.10;73.50
44431;DHT22;30135;47.866;-4.222;2023-05-31T00:50:31;16.10;73.50
44431;DHT22;30135;47.866;-4.222;2023-05-31T00:53:00;16.10;73.60
44431;DHT22;30135;47.866;-4.222;2023-05-31T00:55:27;16.10;73.70
44431;DHT22;30135;47.866;-4.222;2023-05-31T00:57:55;16.10;73.90
44431;DHT22;30135;47.866;-4.222;2023-05-31T01:00:21;16.00;74.00
44431;DHT22;30135;47.866;-4.222;2023-05-31T01:02:47;16.00;74.20
44431;DHT22;30135;47.866;-4.222;2023-05-31T01:05:16;16.00;74.30
44431;DHT22;30135;47.866;-4.222;2023-05-31T01:07:43;16.00;74.30
44431;DHT22;30135;47.866;-4.222;2023-05-31T01:10:10;16.00;74.40
44431;DHT22;30135;47.866;-4.222;2023-05-31T01:12:59;16.00;74.50
44431;DHT22;30135;47.866;-4.222;2023-05-31T01:15:41;15.90;74.60
44431;DHT22;30135;47.866;-4.222;2023-05-31T01:18:14;15.90;74.60
44431;DHT22;30135;47.866;-4.222;2023-05-31T01:20:56;15.90;74.60
44431;DHT22;30135;47.866;-4.222;2023-05-31T01:29:26;15.90;75.00
44431;DHT22;30135;47.866;-4.222;2023-05-31T01:31:55;15.90;75.00
44431;DHT22;30135;47.866;-4.222;2023-05-31T01:34:24;15.90;75.00
44431;DHT22;30135;47.866;-4.222;2023-05-31T01:36:50;15.90;75.10
44431;DHT22;30135;47.866;-4.222;2023-05-31T01:39:16;15.90;75.30
44431;DHT22;30135;47.866;-4.222;2023-05-31T01:41:45;15.90;75.30
44431;DHT22;30135;47.866;-4.222;2023-05-31T01:44:13;15.80;75.30
44431;DHT22;30135;47.866;-4.222;2023-05-31T01:46:41;15.80;75.30
44431;DHT22;30135;47.866;-4.222;2023-05-31T01:49:23;15.80;75.50
44431;DHT22;30135;47.866;-4.222;2023-05-31T01:51:57;15.90;75.60
44431;DHT22;30135;47.866;-4.222;2023-05-31T01:54:23;15.90;75.60
44431;DHT22;30135;47.866;-4.222;2023-05-31T01:56:50;15.80;75.60
44431;DHT22;30135;47.866;-4.222;2023-05-31T01:59:17;15.80;75.60
44431;DHT22;30135;47.866;-4.222;2023-05-31T02:01:44;15.80;75.60
44431;DHT22;30135;47.866;-4.222;2023-05-31T02:04:10;15.80;75.70
44431;DHT22;30135;47.866;-4.222;2023-05-31T02:06:37;15.80;75.90
44431;DHT22;30135;47.866;-4.222;2023-05-31T02:09:05;15.80;76.00
44431;DHT22;30135;47.866;-4.222;2023-05-31T02:11:31;15.80;76.00
44431;DHT22;30135;47.866;-4.222;2023-05-31T02:13:57;15.80;76.10
44431;DHT22;30135;47.866;-4.222;2023-05-31T02:16:23;15.80;76.20
44431;DHT22;30135;47.866;-4.222;2023-05-31T02:18:49;15.70;76.10
44431;DHT22;30135;47.866;-4.222;2023-05-31T02:21:16;15.80;76.30
44431;DHT22;30135;47.866;-4.222;2023-05-31T02:23:42;15.80;76.40
44431;DHT22;30135;47.866;-4.222;2023-05-31T02:26:08;15.80;76.40
44431;DHT22;30135;47.866;-4.222;2023-05-31T02:28:34;15.80;76.40
44431;DHT22;30135;47.866;-4.222;2023-05-31T02:31:01;15.80;76.40
44431;DHT22;30135;47.866;-4.222;2023-05-31T02:33:29;15.70;76.30
44431;DHT22;30135;47.866;-4.222;2023-05-31T02:35:56;15.70;76.40
44431;DHT22;30135;47.866;-4.222;2023-05-31T02:38:22;15.70;76.40
44431;DHT22;30135;47.866;-4.222;2023-05-31T02:40:48;15.70;76.50
44431;DHT22;30135;47.866;-4.222;2023-05-31T02:43:15;15.70;76.60
44431;DHT22;30135;47.866;-4.222;2023-05-31T02:45:41;15.70;76.80
44431;DHT22;30135;47.866;-4.222;2023-05-31T02:48:06;15.70;76.90
44431;DHT22;30135;47.866;-4.222;2023-05-31T02:50:33;15.70;76.90
44431;DHT22;30135;47.866;-4.222;2023-05-31T02:52:59;15.60;77.00
44431;DHT22;30135;47.866;-4.222;2023-05-31T02:55:32;15.60;77.00
44431;DHT22;30135;47.866;-4.222;2023-05-31T02:57:58;15.60;76.90
44431;DHT22;30135;47.866;-4.222;2023-05-31T03:00:25;15.60;77.00
44431;DHT22;30135;47.866;-4.222;2023-05-31T03:02:52;15.60;77.10
44431;DHT22;30135;47.866;-4.222;2023-05-31T03:05:18;15.60;77.10
44431;DHT22;30135;47.866;-4.222;2023-05-31T03:07:44;15.60;77.20
44431;DHT22;30135;47.866;-4.222;2023-05-31T03:10:10;15.60;77.20
44431;DHT22;30135;47.866;-4.222;2023-05-31T03:12:37;15.60;77.30
44431;DHT22;30135;47.866;-4.222;2023-05-31T03:15:04;15.50;77.30
44431;DHT22;30135;47.866;-4.222;2023-05-31T03:17:30;15.50;78.20
44431;DHT22;30135;47.866;-4.222;2023-05-31T03:19:56;15.50;77.50
44431;DHT22;30135;47.866;-4.222;2023-05-31T03:22:22;15.50;77.50
44431;DHT22;30135;47.866;-4.222;2023-05-31T03:24:49;15.50;77.70
44431;DHT22;30135;47.866;-4.222;2023-05-31T03:27:15;15.50;77.60
44431;DHT22;30135;47.866;-4.222;2023-05-31T03:29:42;15.50;77.60
44431;DHT22;30135;47.866;-4.222;2023-05-31T03:32:08;15.50;77.60
44431;DHT22;30135;47.866;-4.222;2023-05-31T03:34:35;15.50;77.70
44431;DHT22;30135;47.866;-4.222;2023-05-31T03:37:01;15.50;77.70
44431;DHT22;30135;47.866;-4.222;2023-05-31T03:39:27;15.50;77.70
44431;DHT22;30135;47.866;-4.222;2023-05-31T03:41:53;15.50;77.80
44431;DHT22;30135;47.866;-4.222;2023-05-31T03:44:23;15.50;77.90
44431;DHT22;30135;47.866;-4.222;2023-05-31T03:46:49;15.50;78.00
44431;DHT22;30135;47.866;-4.222;2023-05-31T03:49:15;15.50;78.00
44431;DHT22;30135;47.866;-4.222;2023-05-31T03:51:41;15.50;78.00
44431;DHT22;30135;47.866;-4.222;2023-05-31T03:54:07;15.50;78.10
44431;DHT22;30135;47.866;-4.222;2023-05-31T03:56:33;15.50;78.10
44431;DHT22;30135;47.866;-4.222;2023-05-31T03:58:59;15.50;78.20
44431;DHT22;30135;47.866;-4.222;2023-05-31T04:01:25;15.50;78.30
44431;DHT22;30135;47.866;-4.222;2023-05-31T04:03:52;15.50;78.30
44431;DHT22;30135;47.866;-4.222;2023-05-31T04:06:18;15.40;78.20
44431;DHT22;30135;47.866;-4.222;2023-05-31T04:08:44;15.40;78.30
44431;DHT22;30135;47.866;-4.222;2023-05-31T04:11:10;15.40;78.50
44431;DHT22;30135;47.866;-4.222;2023-05-31T04:13:36;15.40;78.50
44431;DHT22;30135;47.866;-4.222;2023-05-31T04:16:02;15.40;78.50
44431;DHT22;30135;47.866;-4.222;2023-05-31T04:18:28;15.40;78.60
44431;DHT22;30135;47.866;-4.222;2023-05-31T04:20:54;15.40;78.70
44431;DHT22;30135;47.866;-4.222;2023-05-31T04:23:20;15.40;79.50
44431;DHT22;30135;47.866;-4.222;2023-05-31T04:25:46;15.40;78.70
44431;DHT22;30135;47.866;-4.222;2023-05-31T04:28:13;15.40;78.80
44431;DHT22;30135;47.866;-4.222;2023-05-31T04:30:41;15.40;78.90
44431;DHT22;30135;47.866;-4.222;2023-05-31T04:33:07;15.40;78.90
44431;DHT22;30135;47.866;-4.222;2023-05-31T04:35:33;15.40;79.00
44431;DHT22;30135;47.866;-4.222;2023-05-31T04:37:59;15.40;79.10
44431;DHT22;30135;47.866;-4.222;2023-05-31T04:40:28;15.40;79.20
44431;DHT22;30135;47.866;-4.222;2023-05-31T04:42:58;15.40;79.20
44431;DHT22;30135;47.866;-4.222;2023-05-31T04:45:27;15.40;79.20
44431;DHT22;30135;47.866;-4.222;2023-05-31T04:50:57;15.30;79.20
44431;DHT22;30135;47.866;-4.222;2023-05-31T04:53:24;15.30;79.20
44431;DHT22;30135;47.866;-4.222;2023-05-31T04:55:50;15.30;79.30
44431;DHT22;30135;47.866;-4.222;2023-05-31T04:58:17;15.30;79.40
44431;DHT22;30135;47.866;-4.222;2023-05-31T05:00:45;15.30;79.50
44431;DHT22;30135;47.866;-4.222;2023-05-31T05:03:12;15.30;79.50
44431;DHT22;30135;47.866;-4.222;2023-05-31T05:05:38;15.30;79.60
44431;DHT22;30135;47.866;-4.222;2023-05-31T05:08:04;15.30;79.70
44431;DHT22;30135;47.866;-4.222;2023-05-31T05:10:30;15.30;79.70
44431;DHT22;30135;47.866;-4.222;2023-05-31T05:12:56;15.30;79.70
44431;DHT22;30135;47.866;-4.222;2023-05-31T05:15:22;15.30;79.80
44431;DHT22;30135;47.866;-4.222;2023-05-31T05:17:48;15.30;79.80
44431;DHT22;30135;47.866;-4.222;2023-05-31T05:20:14;15.30;79.80
44431;DHT22;30135;47.866;-4.222;2023-05-31T05:22:41;15.40;79.80
44431;DHT22;30135;47.866;-4.222;2023-05-31T05:25:08;15.40;79.80
44431;DHT22;30135;47.866;-4.222;2023-05-31T05:27:34;15.40;79.80
44431;DHT22;30135;47.866;-4.222;2023-05-31T05:30:01;15.30;79.80
44431;DHT22;30135;47.866;-4.222;2023-05-31T05:32:27;15.30;79.90
44431;DHT22;30135;47.866;-4.222;2023-05-31T05:34:52;15.40;80.10
44431;DHT22;30135;47.866;-4.222;2023-05-31T05:37:18;15.40;80.10
44431;DHT22;30135;47.866;-4.222;2023-05-31T05:39:44;15.30;80.00
44431;DHT22;30135;47.866;-4.222;2023-05-31T05:42:10;15.40;80.20
44431;DHT22;30135;47.866;-4.222;2023-05-31T05:44:37;15.40;80.20
44431;DHT22;30135;47.866;-4.222;2023-05-31T05:47:03;15.40;80.20
44431;DHT22;30135;47.866;-4.222;2023-05-31T05:49:29;15.30;80.20
44431;DHT22;30135;47.866;-4.222;2023-05-31T05:51:55;15.40;80.40
44431;DHT22;30135;47.866;-4.222;2023-05-31T05:54:22;15.40;80.50
44431;DHT22;30135;47.866;-4.222;2023-05-31T05:56:48;15.40;80.60
44431;DHT22;30135;47.866;-4.222;2023-05-31T05:59:14;15.40;80.50
44431;DHT22;30135;47.866;-4.222;2023-05-31T06:01:40;15.40;80.50
44431;DHT22;30135;47.866;-4.222;2023-05-31T06:04:06;15.40;80.50
44431;DHT22;30135;47.866;-4.222;2023-05-31T06:06:32;15.40;80.50
44431;DHT22;30135;47.866;-4.222;2023-05-31T06:08:58;15.40;80.60
44431;DHT22;30135;47.866;-4.222;2023-05-31T06:11:25;15.50;80.70
44431;DHT22;30135;47.866;-4.222;2023-05-31T06:13:58;15.40;80.70
44431;DHT22;30135;47.866;-4.222;2023-05-31T06:16:30;15.50;80.80
44431;DHT22;30135;47.866;-4.222;2023-05-31T06:18:56;15.50;81.60
44431;DHT22;30135;47.866;-4.222;2023-05-31T06:21:26;15.50;80.60
44431;DHT22;30135;47.866;-4.222;2023-05-31T06:23:53;15.50;80.60
44431;DHT22;30135;47.866;-4.222;2023-05-31T06:26:21;15.60;80.60
44431;DHT22;30135;47.866;-4.222;2023-05-31T06:28:48;15.60;80.70
44431;DHT22;30135;47.866;-4.222;2023-05-31T06:31:16;15.60;80.60
44431;DHT22;30135;47.866;-4.222;2023-05-31T06:33:42;15.60;80.60
44431;DHT22;30135;47.866;-4.222;2023-05-31T06:36:08;15.60;80.50
44431;DHT22;30135;47.866;-4.222;2023-05-31T06:38:34;15.70;80.70
44431;DHT22;30135;47.866;-4.222;2023-05-31T06:41:00;15.70;80.80
44431;DHT22;30135;47.866;-4.222;2023-05-31T06:43:26;15.70;80.70
44431;DHT22;30135;47.866;-4.222;2023-05-31T06:45:53;15.70;80.80
44431;DHT22;30135;47.866;-4.222;2023-05-31T06:48:18;15.70;80.80
44431;DHT22;30135;47.866;-4.222;2023-05-31T06:50:45;15.80;80.80
44431;DHT22;30135;47.866;-4.222;2023-05-31T06:53:11;15.80;80.70
44431;DHT22;30135;47.866;-4.222;2023-05-31T06:55:38;15.80;80.80
44431;DHT22;30135;47.866;-4.222;2023-05-31T06:58:04;15.80;80.80
44431;DHT22;30135;47.866;-4.222;2023-05-31T07:00:31;15.90;80.80
44431;DHT22;30135;47.866;-4.222;2023-05-31T07:02:57;15.90;80.70
44431;DHT22;30135;47.866;-4.222;2023-05-31T07:05:25;15.90;80.60
44431;DHT22;30135;47.866;-4.222;2023-05-31T07:07:51;16.00;80.60
44431;DHT22;30135;47.866;-4.222;2023-05-31T07:10:17;16.00;80.70
44431;DHT22;30135;47.866;-4.222;2023-05-31T07:12:45;16.00;80.60
44431;DHT22;30135;47.866;-4.222;2023-05-31T07:15:11;16.00;80.60
44431;DHT22;30135;47.866;-4.222;2023-05-31T07:17:37;16.00;80.60
44431;DHT22;30135;47.866;-4.222;2023-05-31T07:20:03;16.10;80.60
44431;DHT22;30135;47.866;-4.222;2023-05-31T07:22:32;16.10;80.60
44431;DHT22;30135;47.866;-4.222;2023-05-31T07:24:58;16.20;80.60
44431;DHT22;30135;47.866;-4.222;2023-05-31T07:27:24;16.20;80.60
44431;DHT22;30135;47.866;-4.222;2023-05-31T07:29:50;16.20;80.60
44431;DHT22;30135;47.866;-4.222;2023-05-31T07:32:16;16.30;80.60
44431;DHT22;30135;47.866;-4.222;2023-05-31T07:34:42;16.30;80.60
44431;DHT22;30135;47.866;-4.222;2023-05-31T07:37:08;16.30;80.50
44431;DHT22;30135;47.866;-4.222;2023-05-31T07:39:34;16.40;80.40
44431;DHT22;30135;47.866;-4.222;2023-05-31T07:42:00;16.40;80.50
44431;DHT22;30135;47.866;-4.222;2023-05-31T07:44:27;16.40;80.50
44431;DHT22;30135;47.866;-4.222;2023-05-31T07:46:53;16.40;80.40
44431;DHT22;30135;47.866;-4.222;2023-05-31T07:49:19;16.50;80.30
44431;DHT22;30135;47.866;-4.222;2023-05-31T07:51:45;16.50;80.10
44431;DHT22;30135;47.866;-4.222;2023-05-31T07:54:11;16.50;80.10
44431;DHT22;30135;47.866;-4.222;2023-05-31T07:56:37;16.60;80.30
44431;DHT22;30135;47.866;-4.222;2023-05-31T07:59:03;16.60;80.10
44431;DHT22;30135;47.866;-4.222;2023-05-31T08:01:29;16.60;80.00
44431;DHT22;30135;47.866;-4.222;2023-05-31T08:04:08;16.70;80.00
44431;DHT22;30135;47.866;-4.222;2023-05-31T08:06:35;16.70;80.00
44431;DHT22;30135;47.866;-4.222;2023-05-31T08:09:03;16.70;79.90
44431;DHT22;30135;47.866;-4.222;2023-05-31T08:11:35;16.80;80.00
44431;DHT22;30135;47.866;-4.222;2023-05-31T08:14:02;16.90;80.00
44431;DHT22;30135;47.866;-4.222;2023-05-31T08:16:32;16.90;80.10
44431;DHT22;30135;47.866;-4.222;2023-05-31T08:19:02;16.90;80.00
44431;DHT22;30135;47.866;-4.222;2023-05-31T08:21:31;17.00;79.80
44431;DHT22;30135;47.866;-4.222;2023-05-31T08:24:00;17.00;79.50
44431;DHT22;30135;47.866;-4.222;2023-05-31T08:26:26;17.10;79.50
44431;DHT22;30135;47.866;-4.222;2023-05-31T08:28:55;17.10;79.50
44431;DHT22;30135;47.866;-4.222;2023-05-31T08:31:21;17.10;79.50
44431;DHT22;30135;47.866;-4.222;2023-05-31T08:34:04;17.10;79.30
44431;DHT22;30135;47.866;-4.222;2023-05-31T08:36:31;17.20;79.40
44431;DHT22;30135;47.866;-4.222;2023-05-31T08:38:57;17.20;79.20
44431;DHT22;30135;47.866;-4.222;2023-05-31T08:41:27;17.30;79.10
44431;DHT22;30135;47.866;-4.222;2023-05-31T08:43:56;17.30;78.90
44431;DHT22;30135;47.866;-4.222;2023-05-31T08:46:22;17.30;78.90
44431;DHT22;30135;47.866;-4.222;2023-05-31T08:49:05;17.40;79.00
44431;DHT22;30135;47.866;-4.222;2023-05-31T08:51:35;17.40;78.70
44431;DHT22;30135;47.866;-4.222;2023-05-31T08:54:02;17.40;78.50
44431;DHT22;30135;47.866;-4.222;2023-05-31T08:56:30;17.50;78.30
44431;DHT22;30135;47.866;-4.222;2023-05-31T08:58:57;17.50;78.20
44431;DHT22;30135;47.866;-4.222;2023-05-31T09:01:24;17.50;78.30
44431;DHT22;30135;47.866;-4.222;2023-05-31T09:03:53;17.50;78.10
44431;DHT22;30135;47.866;-4.222;2023-05-31T09:06:19;17.60;78.00
44431;DHT22;30135;47.866;-4.222;2023-05-31T09:08:45;17.60;78.00
44431;DHT22;30135;47.866;-4.222;2023-05-31T09:11:13;17.70;77.80
44431;DHT22;30135;47.866;-4.222;2023-05-31T09:13:39;17.70;77.40
44431;DHT22;30135;47.866;-4.222;2023-05-31T09:16:06;17.70;77.10
44431;DHT22;30135;47.866;-4.222;2023-05-31T09:18:39;17.80;77.10
44431;DHT22;30135;47.866;-4.222;2023-05-31T09:21:10;17.80;77.00
44431;DHT22;30135;47.866;-4.222;2023-05-31T09:23:57;17.90;76.90
44431;DHT22;30135;47.866;-4.222;2023-05-31T09:26:25;17.90;77.00
44431;DHT22;30135;47.866;-4.222;2023-05-31T09:28:54;18.00;77.10
44431;DHT22;30135;47.866;-4.222;2023-05-31T09:31:20;18.00;76.90
44431;DHT22;30135;47.866;-4.222;2023-05-31T09:33:48;18.10;76.50
44431;DHT22;30135;47.866;-4.222;2023-05-31T09:36:29;18.20;76.60
44431;DHT22;30135;47.866;-4.222;2023-05-31T09:39:00;18.20;75.60
44431;DHT22;30135;47.866;-4.222;2023-05-31T09:41:32;18.20;76.00
44431;DHT22;30135;47.866;-4.222;2023-05-31T09:44:08;18.30;75.80
44431;DHT22;30135;47.866;-4.222;2023-05-31T09:46:34;18.30;75.70
44431;DHT22;30135;47.866;-4.222;2023-05-31T09:49:01;18.40;75.40
44431;DHT22;30135;47.866;-4.222;2023-05-31T09:51:29;18.40;75.50
44431;DHT22;30135;47.866;-4.222;2023-05-31T09:54:00;18.50;75.50
44431;DHT22;30135;47.866;-4.222;2023-05-31T09:56:28;18.50;75.30
44431;DHT22;30135;47.866;-4.222;2023-05-31T09:59:01;18.60;75.20
44431;DHT22;30135;47.866;-4.222;2023-05-31T10:01:29;18.60;75.00
44431;DHT22;30135;47.866;-4.222;2023-05-31T10:03:56;18.70;74.80
44431;DHT22;30135;47.866;-4.222;2023-05-31T10:06:25;18.80;74.70
44431;DHT22;30135;47.866;-4.222;2023-05-31T10:08:51;18.80;74.30
44431;DHT22;30135;47.866;-4.222;2023-05-31T10:11:21;18.80;74.20
44431;DHT22;30135;47.866;-4.222;2023-05-31T10:13:55;18.90;74.20
44431;DHT22;30135;47.866;-4.222;2023-05-31T10:16:26;18.90;74.10
44431;DHT22;30135;47.866;-4.222;2023-05-31T10:18:54;19.00;74.00
44431;DHT22;30135;47.866;-4.222;2023-05-31T10:21:24;19.10;73.90
44431;DHT22;30135;47.866;-4.222;2023-05-31T10:26:45;19.20;73.60
44431;DHT22;30135;47.866;-4.222;2023-05-31T10:29:23;19.30;73.80
44431;DHT22;30135;47.866;-4.222;2023-05-31T10:32:01;19.40;73.60
44431;DHT22;30135;47.866;-4.222;2023-05-31T10:34:35;19.50;73.50
44431;DHT22;30135;47.866;-4.222;2023-05-31T10:37:02;19.50;73.10
44431;DHT22;30135;47.866;-4.222;2023-05-31T10:45:33;19.70;71.60
44431;DHT22;30135;47.866;-4.222;2023-05-31T10:48:18;19.80;71.80
44431;DHT22;30135;47.866;-4.222;2023-05-31T10:53:19;19.90;71.50
44431;DHT22;30135;47.866;-4.222;2023-05-31T10:55:46;19.90;71.50
44431;DHT22;30135;47.866;-4.222;2023-05-31T10:58:40;20.00;71.00
44431;DHT22;30135;47.866;-4.222;2023-05-31T11:01:12;20.10;70.80
44431;DHT22;30135;47.866;-4.222;2023-05-31T11:03:59;20.10;70.30
44431;DHT22;30135;47.866;-4.222;2023-05-31T11:06:28;20.10;69.90
44431;DHT22;30135;47.866;-4.222;2023-05-31T11:09:12;20.20;70.40
44431;DHT22;30135;47.866;-4.222;2023-05-31T11:14:24;20.40;70.20
44431;DHT22;30135;47.866;-4.222;2023-05-31T11:19:29;20.50;69.60
44431;DHT22;30135;47.866;-4.222;2023-05-31T11:21:58;20.60;69.40
44431;DHT22;30135;47.866;-4.222;2023-05-31T11:24:47;20.70;69.40
44431;DHT22;30135;47.866;-4.222;2023-05-31T11:27:15;20.80;69.00
44431;DHT22;30135;47.866;-4.222;2023-05-31T11:32:14;21.00;68.30
44431;DHT22;30135;47.866;-4.222;2023-05-31T11:37:24;21.10;67.50
44431;DHT22;30135;47.866;-4.222;2023-05-31T11:39:54;21.20;67.70
44431;DHT22;30135;47.866;-4.222;2023-05-31T11:42:23;21.30;67.30
44431;DHT22;30135;47.866;-4.222;2023-05-31T11:44:50;21.30;67.20
44431;DHT22;30135;47.866;-4.222;2023-05-31T11:47:19;21.40;67.30
44431;DHT22;30135;47.866;-4.222;2023-05-31T11:49:46;21.50;67.10
44431;DHT22;30135;47.866;-4.222;2023-05-31T11:52:18;21.50;66.80
44431;DHT22;30135;47.866;-4.222;2023-05-31T11:54:47;21.60;66.00
44431;DHT22;30135;47.866;-4.222;2023-05-31T11:57:15;21.70;66.10
44431;DHT22;30135;47.866;-4.222;2023-05-31T11:59:46;21.70;65.90
44431;DHT22;30135;47.866;-4.222;2023-05-31T12:02:12;21.70;65.30
44431;DHT22;30135;47.866;-4.222;2023-05-31T12:04:39;21.80;65.00
44431;DHT22;30135;47.866;-4.222;2023-05-31T12:07:12;21.80;64.80
44431;DHT22;30135;47.866;-4.222;2023-05-31T12:09:46;21.90;64.50
44431;DHT22;30135;47.866;-4.222;2023-05-31T12:12:12;21.90;64.50
44431;DHT22;30135;47.866;-4.222;2023-05-31T12:14:52;22.00;64.30
44431;DHT22;30135;47.866;-4.222;2023-05-31T12:17:20;22.00;63.90
44431;DHT22;30135;47.866;-4.222;2023-05-31T12:19:50;22.10;64.30
44431;DHT22;30135;47.866;-4.222;2023-05-31T12:22:16;22.20;64.20
44431;DHT22;30135;47.866;-4.222;2023-05-31T12:24:49;22.20;64.10
44431;DHT22;30135;47.866;-4.222;2023-05-31T12:27:26;22.30;63.40
44431;DHT22;30135;47.866;-4.222;2023-05-31T12:30:00;22.40;63.70
44431;DHT22;30135;47.866;-4.222;2023-05-31T12:32:33;22.50;63.50
44431;DHT22;30135;47.866;-4.222;2023-05-31T12:35:07;22.50;64.40
44431;DHT22;30135;47.866;-4.222;2023-05-31T12:37:40;22.60;62.80
44431;DHT22;30135;47.866;-4.222;2023-05-31T12:40:11;22.60;62.80
44431;DHT22;30135;47.866;-4.222;2023-05-31T12:42:41;22.60;62.50
44431;DHT22;30135;47.866;-4.222;2023-05-31T12:45:08;22.70;62.50
44431;DHT22;30135;47.866;-4.222;2023-05-31T12:47:35;22.70;62.30
44431;DHT22;30135;47.866;-4.222;2023-05-31T12:50:07;22.70;62.30
44431;DHT22;30135;47.866;-4.222;2023-05-31T12:52:34;22.80;62.30
44431;DHT22;30135;47.866;-4.222;2023-05-31T12:55:02;22.80;62.10
44431;DHT22;30135;47.866;-4.222;2023-05-31T12:57:30;22.90;61.80
44431;DHT22;30135;47.866;-4.222;2023-05-31T13:00:00;22.90;61.50
44431;DHT22;30135;47.866;-4.222;2023-05-31T13:02:29;22.90;61.10
44431;DHT22;30135;47.866;-4.222;2023-05-31T13:04:55;22.90;61.50
44431;DHT22;30135;47.866;-4.222;2023-05-31T13:07:22;23.00;61.50
44431;DHT22;30135;47.866;-4.222;2023-05-31T13:09:48;23.00;61.40
44431;DHT22;30135;47.866;-4.222;2023-05-31T13:12:14;23.00;61.30
44431;DHT22;30135;47.866;-4.222;2023-05-31T13:14:40;23.10;61.40
44431;DHT22;30135;47.866;-4.222;2023-05-31T13:17:06;23.20;61.00
44431;DHT22;30135;47.866;-4.222;2023-05-31T13:19:32;23.20;60.60
44431;DHT22;30135;47.866;-4.222;2023-05-31T13:21:58;23.30;60.90
44431;DHT22;30135;47.866;-4.222;2023-05-31T13:24:24;23.30;60.70
44431;DHT22;30135;47.866;-4.222;2023-05-31T13:26:54;23.30;60.40
44431;DHT22;30135;47.866;-4.222;2023-05-31T13:29:20;23.30;60.00
44431;DHT22;30135;47.866;-4.222;2023-05-31T13:31:49;23.30;60.10
44431;DHT22;30135;47.866;-4.222;2023-05-31T13:34:17;23.40;60.20
44431;DHT22;30135;47.866;-4.222;2023-05-31T13:36:44;23.40;59.70
44431;DHT22;30135;47.866;-4.222;2023-05-31T13:39:10;23.40;59.60
44431;DHT22;30135;47.866;-4.222;2023-05-31T13:41:41;23.40;59.80
44431;DHT22;30135;47.866;-4.222;2023-05-31T13:44:09;23.50;59.60
44431;DHT22;30135;47.866;-4.222;2023-05-31T13:46:35;23.50;59.40
44431;DHT22;30135;47.866;-4.222;2023-05-31T13:49:01;23.60;59.50
44431;DHT22;30135;47.866;-4.222;2023-05-31T13:51:28;23.60;59.60
44431;DHT22;30135;47.866;-4.222;2023-05-31T13:53:54;23.60;59.20
44431;DHT22;30135;47.866;-4.222;2023-05-31T13:56:20;23.70;59.40
44431;DHT22;30135;47.866;-4.222;2023-05-31T13:58:47;23.70;59.20
44431;DHT22;30135;47.866;-4.222;2023-05-31T14:01:13;23.70;59.40
44431;DHT22;30135;47.866;-4.222;2023-05-31T14:03:39;23.70;59.00
44431;DHT22;30135;47.866;-4.222;2023-05-31T14:06:06;23.80;59.00
44431;DHT22;30135;47.866;-4.222;2023-05-31T14:08:33;23.80;59.10
44431;DHT22;30135;47.866;-4.222;2023-05-31T14:11:00;23.80;59.00
44431;DHT22;30135;47.866;-4.222;2023-05-31T14:13:26;23.80;58.90
44431;DHT22;30135;47.866;-4.222;2023-05-31T14:15:54;23.80;58.90
44431;DHT22;30135;47.866;-4.222;2023-05-31T14:18:21;23.90;58.90
44431;DHT22;30135;47.866;-4.222;2023-05-31T14:20:49;23.90;58.90
44431;DHT22;30135;47.866;-4.222;2023-05-31T14:23:18;23.90;58.60
44431;DHT22;30135;47.866;-4.222;2023-05-31T14:25:44;23.90;58.80
44431;DHT22;30135;47.866;-4.222;2023-05-31T14:28:10;23.90;58.70
44431;DHT22;30135;47.866;-4.222;2023-05-31T14:30:36;23.90;58.50
44431;DHT22;30135;47.866;-4.222;2023-05-31T14:33:03;23.90;58.60
44431;DHT22;30135;47.866;-4.222;2023-05-31T14:35:29;23.90;58.30
44431;DHT22;30135;47.866;-4.222;2023-05-31T14:37:56;23.90;58.60
44431;DHT22;30135;47.866;-4.222;2023-05-31T14:40:22;23.90;58.40
44431;DHT22;30135;47.866;-4.222;2023-05-31T14:42:48;23.90;58.50
44431;DHT22;30135;47.866;-4.222;2023-05-31T14:45:15;24.00;58.70
44431;DHT22;30135;47.866;-4.222;2023-05-31T14:47:43;24.00;58.70
44431;DHT22;30135;47.866;-4.222;2023-05-31T14:50:09;24.00;58.40
44431;DHT22;30135;47.866;-4.222;2023-05-31T14:52:35;24.00;58.30
44431;DHT22;30135;47.866;-4.222;2023-05-31T14:55:01;24.10;58.30
44431;DHT22;30135;47.866;-4.222;2023-05-31T14:57:28;24.10;58.70
44431;DHT22;30135;47.866;-4.222;2023-05-31T14:59:54;24.10;57.90
44431;DHT22;30135;47.866;-4.222;2023-05-31T15:02:20;24.10;57.90
44431;DHT22;30135;47.866;-4.222;2023-05-31T15:04:46;24.10;57.90
44431;DHT22;30135;47.866;-4.222;2023-05-31T15:07:12;24.20;57.90
44431;DHT22;30135;47.866;-4.222;2023-05-31T15:09:39;24.10;58.00
44431;DHT22;30135;47.866;-4.222;2023-05-31T15:12:05;24.10;57.90
44431;DHT22;30135;47.866;-4.222;2023-05-31T15:14:32;24.10;57.60
44431;DHT22;30135;47.866;-4.222;2023-05-31T15:16:58;24.00;57.60
44431;DHT22;30135;47.866;-4.222;2023-05-31T15:19:24;24.00;57.70
44431;DHT22;30135;47.866;-4.222;2023-05-31T15:21:50;24.00;57.60
44431;DHT22;30135;47.866;-4.222;2023-05-31T15:24:17;24.00;57.60
44431;DHT22;30135;47.866;-4.222;2023-05-31T15:26:43;24.00;58.00
44431;DHT22;30135;47.866;-4.222;2023-05-31T15:29:09;24.00;57.50
44431;DHT22;30135;47.866;-4.222;2023-05-31T15:31:37;24.00;57.40
44431;DHT22;30135;47.866;-4.222;2023-05-31T15:34:03;24.00;57.60
44431;DHT22;30135;47.866;-4.222;2023-05-31T15:36:29;24.00;57.40
44431;DHT22;30135;47.866;-4.222;2023-05-31T15:39:00;24.00;57.40
44431;DHT22;30135;47.866;-4.222;2023-05-31T15:41:29;24.00;57.30
44431;DHT22;30135;47.866;-4.222;2023-05-31T15:43:56;23.90;57.10
44431;DHT22;30135;47.866;-4.222;2023-05-31T15:46:22;23.90;57.30
44431;DHT22;30135;47.866;-4.222;2023-05-31T15:48:48;23.90;57.40
44431;DHT22;30135;47.866;-4.222;2023-05-31T15:51:14;23.90;57.60